Long Island, KS (67647)

12:06 PM CDT on July 29, 2014 (GMT -0500)
Sarrada Farms 0.1 mi W (KKSLOGAN2) Elev 2021 ft | 39.66 °N, 99.58 °W | Change Station

Current weather conditions updated 10 seconds ago

Clear
Clear
81.3 °F
Feels Like 82 °F
N
14.1
Wind Variable Wind from SE
Gusts 18.0 mph

Today is forecast to be Cooler than yesterday. Late night thunderstorms tonight.

Today
High -- | Low -- °F
--% Chance of Precip.
Yesterday
High -- | Low -- °F
Precip. -- in
6:33 AM 8:54 PM
Waxing Crescent, 7% visible
Pressure 30.23 in
Visibility 10.0 miles
Clouds Clear
Heat Index 82 °F
Dew Point 59 °F
Humidity 46%
Rainfall 0.00 in
Snow Depth Not available.
UV 10 out of 12
Pollen 7.10 out of 12
Air Quality Not available.
Flu Activity Not available.
METAR KHDE 291655Z AUTO 12007KT 10SM CLR 22/13 A3023 RMK AO2 T02200128

More Conditions Fewer Conditions

Pressure 30.23 in
Visibility 10.0 miles
Clouds Clear
Heat Index 82 °F
Dew Point 59 °F
Humidity 46%
Rainfall 0.00 in
Snow Depth Not available.
UV 10 out of 12
Pollen 7.10 out of 12
Air Quality Not available.
Flu Activity Not available.
METAR KHDE 291655Z AUTO 12007KT 10SM CLR 22/13 A3023 RMK AO2 T02200128

More Conditions Fewer Conditions

10-Day Weather Forecast

Almanac

Astronomy

Jul. 29, 2014 Rise Set
Actual Time 6:33 AM CDT 8:54 PM CDT
Civil Twilight 6:03 AM CDT 9:25 PM CDT
Nautical Twilight 5:25 AM CDT 10:02 PM CDT
Astronomical Twilight 4:43 AM CDT 10:44 PM CDT
Moon 9:11 AM CDT 10:08 PM CDT
Length of Visible Light 15h 21m
Length of Day
14h 20m
Tomorrow will be 1m 55s shorter.
Waxing Crescent, 7% of the Moon is Illuminated
Today
Waxing Crescent
Aug 3
First Quarter
Aug 10
Full
Aug 17
Last Quarter
Aug 25
New

Today's Extremes

State Highs State Lows

Community

WunderPhotos

Upload Photos

1,738,786 photos uploaded!

Nearby

Snow Depth

Station Depth Elevation
No new snow has been reported.

Earthquake Activity

City Distance Mag. Time & Date
No recent earthquake activity has been reported nearby.
Minimum magnitude displayed is 2.5.

Coastal Water Temperatures

Place Temperature
No Stations Reporting

Nearby Weather Stations

Station Location Temp. Heat Index Dew Point Humidity Wind Precip. Elev Updated Type
MesoWest PHILLIPSBURG , Phillipsburg, KS 76 °F 78 °F 56 °F 49% SE  at  10 mph 0.00 in / hr 1985 ft 11:00 AM CDT MADIS
Sarrada Farms 0.1 mi W, Logan, KS 81.3 °F 82 °F 59 °F 46% SE  at  14.1 mph 0.00 in / hr 2021 ft 12:06 PM CDT Rapid Fire

Show More Stations Show Fewer Stations